East Hill, Vermont
Current Conditions -  °F | °C
As of 11:51 PM on Friday 28 Nov 2014 (Local Time) from KMPV Reporting Station
Overcast Overcast  
Wind Chill: 11°   Ceiling: 3200
Heat Index: 18°   Visibility: 9mi
Dew Point: 13°   Wind: 5mph
Humidity: 81%   Direction: 290°WNW
Pressure: 30.17"   Gusts: NA
Location:  44.1738°N, 72.4252°W
Report Text: KMPV 290451Z AUTO 29004KT 9SM OVC032 M08/M11 A3017 RMK AO2 SNB10E19 SLP240 P0000 T10781106 410501106 $
Loading
Personal Weather Stations






























Interactive Weather Map New forecast layout! Learn more

10-Day Weather Forecast

Advertisements
Track Severe Weather on mobile